createdAt,value
2018-03-29T00:00:08.681Z,5.30
2018-03-29T00:02:38.611Z,5.73
2018-03-29T00:05:10.317Z,4.00
2018-03-29T00:07:40.443Z,5.17
2018-03-29T00:10:09.538Z,5.87
2018-03-29T00:12:38.837Z,5.33
2018-03-29T00:15:08.313Z,5.97
2018-03-29T00:17:37.528Z,6.57
2018-03-29T00:20:06.719Z,6.27
2018-03-29T00:22:35.861Z,8.07
2018-03-29T00:25:05.711Z,6.00
2018-03-29T00:27:34.910Z,7.90
2018-03-29T00:30:04.124Z,9.63
2018-03-29T00:32:33.156Z,10.13
2018-03-29T00:35:03.134Z,9.63
2018-03-29T00:37:32.927Z,10.37
2018-03-29T00:40:01.883Z,10.20
2018-03-29T00:42:31.580Z,10.70
2018-03-29T00:45:01.164Z,10.77
2018-03-29T00:47:30.070Z,10.67
2018-03-29T00:49:59.380Z,10.33
2018-03-29T00:52:28.740Z,10.57
2018-03-29T00:54:57.776Z,10.80
2018-03-29T00:57:27.193Z,10.07
2018-03-29T00:59:56.133Z,9.90
2018-03-29T01:02:24.658Z,8.13
2018-03-29T01:04:54.043Z,8.07
2018-03-29T01:07:24.516Z,9.27
2018-03-29T01:09:53.272Z,9.27
2018-03-29T01:12:22.680Z,8.93
2018-03-29T01:14:51.311Z,8.40
2018-03-29T01:17:19.915Z,8.40
2018-03-29T01:19:48.606Z,7.50
2018-03-29T01:22:17.474Z,7.33
2018-03-29T01:24:45.789Z,7.80
2018-03-29T01:27:15.345Z,6.90
2018-03-29T01:29:44.138Z,5.70
2018-03-29T01:32:16.977Z,7.30
2018-03-29T01:34:45.860Z,5.53
2018-03-29T01:37:14.747Z,6.83
2018-03-29T01:39:43.990Z,6.50
2018-03-29T01:42:12.581Z,5.60
2018-03-29T01:44:40.785Z,5.17
2018-03-29T01:47:09.999Z,4.83
2018-03-29T01:49:38.428Z,5.00
2018-03-29T01:52:06.707Z,5.07
2018-03-29T01:54:35.032Z,4.30
2018-03-29T01:57:04.310Z,4.13
2018-03-29T01:59:32.643Z,4.70
2018-03-29T02:02:01.855Z,5.33
2018-03-29T02:04:30.973Z,3.90
2018-03-29T02:06:59.397Z,4.13
2018-03-29T02:09:28.420Z,3.73
2018-03-29T02:11:57.256Z,3.57
2018-03-29T02:14:26.392Z,3.67
2018-03-29T02:16:54.668Z,3.27
2018-03-29T02:19:22.994Z,3.90
2018-03-29T02:21:51.978Z,3.77
2018-03-29T02:24:20.671Z,3.60
2018-03-29T02:26:49.016Z,3.77
2018-03-29T02:29:17.228Z,4.13
2018-03-29T02:31:46.162Z,3.27
2018-03-29T02:34:14.309Z,3.67
2018-03-29T02:36:43.250Z,4.30
2018-03-29T02:39:12.233Z,4.00
2018-03-29T02:41:40.527Z,3.90
2018-03-29T02:44:08.853Z,4.83
2018-03-29T02:46:37.011Z,4.47
2018-03-29T02:49:06.367Z,5.17
2018-03-29T02:51:34.870Z,4.60
2018-03-29T02:54:03.038Z,3.97
2018-03-29T02:56:31.261Z,4.33
2018-03-29T02:58:59.723Z,4.23
2018-03-29T03:01:28.772Z,4.40
2018-03-29T03:03:56.935Z,4.53
2018-03-29T03:06:25.096Z,4.70
2018-03-29T03:08:53.313Z,4.80
2018-03-29T03:11:23.583Z,4.33
2018-03-29T03:13:52.170Z,4.93
2018-03-29T03:16:21.142Z,4.20
2018-03-29T03:18:49.674Z,4.47
2018-03-29T03:21:18.222Z,5.67
2018-03-29T03:23:46.559Z,5.60
2018-03-29T03:26:14.712Z,5.57
2018-03-29T03:28:44.394Z,5.63
2018-03-29T03:31:12.640Z,4.37
2018-03-29T03:33:41.365Z,5.03
2018-03-29T03:36:10.029Z,5.00
2018-03-29T03:38:38.426Z,4.73
2018-03-29T03:41:07.073Z,4.67
2018-03-29T03:43:35.298Z,3.93
2018-03-29T03:46:03.542Z,4.67
2018-03-29T03:48:32.734Z,4.50
2018-03-29T03:51:01.371Z,4.67
2018-03-29T03:53:29.975Z,4.30
2018-03-29T03:55:58.514Z,5.17
2018-03-29T03:58:26.991Z,5.43
2018-03-29T04:00:55.467Z,4.77
2018-03-29T04:03:24.174Z,5.40
2018-03-29T04:05:53.055Z,5.17
2018-03-29T04:08:21.289Z,5.63
2018-03-29T04:10:49.686Z,5.57
2018-03-29T04:13:19.915Z,5.17
2018-03-29T04:15:49.242Z,5.70
2018-03-29T04:18:18.514Z,5.80
2018-03-29T04:20:47.411Z,5.70
2018-03-29T04:23:15.755Z,5.20
2018-03-29T04:25:44.766Z,5.63
2018-03-29T04:28:13.328Z,6.00
2018-03-29T04:30:42.310Z,6.03
2018-03-29T04:33:11.759Z,6.80
2018-03-29T04:35:40.869Z,6.57
2018-03-29T04:38:09.942Z,7.23
2018-03-29T04:40:38.595Z,7.00
2018-03-29T04:43:07.227Z,6.90
2018-03-29T04:45:35.868Z,7.13
2018-03-29T04:48:05.095Z,6.83
2018-03-29T04:50:33.857Z,7.13
2018-03-29T04:53:02.955Z,6.60
2018-03-29T04:55:31.973Z,7.70
2018-03-29T04:58:00.333Z,7.00
2018-03-29T05:00:29.445Z,6.80
2018-03-29T05:02:58.110Z,6.80
2018-03-29T05:05:26.996Z,7.43
2018-03-29T05:07:55.311Z,7.10
2018-03-29T05:10:24.168Z,7.40
2018-03-29T05:12:52.913Z,7.80
2018-03-29T05:15:22.982Z,8.50
2018-03-29T05:17:51.776Z,8.00
2018-03-29T05:20:20.403Z,8.07
2018-03-29T05:22:49.945Z,8.00
2018-03-29T05:25:20.018Z,7.63
2018-03-29T05:27:54.104Z,7.73
2018-03-29T05:30:22.921Z,7.70
2018-03-29T05:32:52.257Z,7.40
2018-03-29T05:35:21.056Z,8.57
2018-03-29T05:37:50.157Z,7.63
2018-03-29T05:40:18.967Z,7.87
2018-03-29T05:42:49.630Z,7.40
2018-03-29T05:45:19.236Z,8.37
2018-03-29T05:47:48.866Z,8.03
2018-03-29T05:50:18.747Z,8.43
2018-03-29T05:52:48.432Z,8.47
2018-03-29T05:55:19.024Z,7.53
2018-03-29T05:57:48.851Z,7.73
2018-03-29T06:00:17.787Z,8.40
2018-03-29T06:02:47.839Z,7.17
2018-03-29T06:05:18.048Z,8.23
2018-03-29T06:07:49.225Z,7.40
2018-03-29T06:10:19.252Z,7.97
2018-03-29T06:12:48.821Z,7.90
2018-03-29T06:15:18.173Z,7.33
2018-03-29T06:17:53.834Z,7.60
2018-03-29T06:20:23.863Z,7.80
2018-03-29T06:22:53.774Z,7.43
2018-03-29T06:25:24.162Z,7.20
2018-03-29T06:27:54.180Z,7.83
2018-03-29T06:30:23.757Z,8.33
2018-03-29T06:32:52.999Z,8.20
2018-03-29T06:35:22.117Z,7.40
2018-03-29T06:37:52.098Z,7.87
2018-03-29T06:40:21.869Z,7.90
2018-03-29T06:42:51.072Z,8.07
2018-03-29T06:45:20.293Z,7.70
2018-03-29T06:47:49.903Z,7.73
2018-03-29T06:50:19.226Z,6.90
2018-03-29T06:52:48.388Z,7.10
2018-03-29T06:55:17.673Z,7.60
2018-03-29T06:57:46.802Z,7.83
2018-03-29T07:00:17.454Z,8.30
2018-03-29T07:02:47.150Z,6.67
2018-03-29T07:05:16.246Z,7.30
2018-03-29T07:07:46.178Z,8.70
2018-03-29T07:10:15.513Z,6.93
2018-03-29T07:12:45.563Z,7.00
2018-03-29T07:15:14.566Z,7.93
2018-03-29T07:17:44.184Z,8.77
2018-03-29T07:20:15.306Z,9.03
2018-03-29T07:22:44.525Z,8.37
2018-03-29T07:25:13.794Z,7.30
2018-03-29T07:27:43.108Z,7.87
2018-03-29T07:30:12.279Z,6.37
2018-03-29T07:32:42.462Z,7.33
2018-03-29T07:35:12.419Z,7.10
2018-03-29T07:37:41.633Z,7.23
2018-03-29T07:40:11.003Z,7.50
2018-03-29T07:42:40.424Z,7.20
2018-03-29T07:45:09.751Z,7.40
2018-03-29T07:47:38.825Z,7.43
2018-03-29T07:50:08.128Z,5.83
2018-03-29T07:52:37.689Z,7.03
2018-03-29T07:55:07.514Z,6.60
2018-03-29T07:57:37.956Z,7.57
2018-03-29T08:00:07.362Z,6.70
2018-03-29T08:02:37.224Z,7.60
2018-03-29T08:05:06.262Z,7.27
2018-03-29T08:07:35.803Z,6.20
2018-03-29T08:10:05.592Z,7.40
2018-03-29T08:12:34.609Z,6.40
2018-03-29T08:15:03.908Z,6.77
2018-03-29T08:17:32.886Z,7.40
2018-03-29T08:20:02.025Z,6.70
2018-03-29T08:22:31.794Z,8.07
2018-03-29T08:25:02.459Z,7.43
2018-03-29T08:27:31.612Z,7.03
2018-03-29T08:30:00.578Z,6.63
2018-03-29T08:32:29.699Z,8.27
2018-03-29T08:34:59.635Z,7.53
2018-03-29T08:37:28.812Z,8.07
2018-03-29T08:39:57.687Z,7.20
2018-03-29T08:42:27.026Z,8.10
2018-03-29T08:44:55.959Z,8.13
2018-03-29T08:47:25.857Z,7.40
2018-03-29T08:49:55.548Z,8.20
2018-03-29T08:52:24.600Z,7.57
2018-03-29T08:57:38.436Z,6.37
2018-03-29T09:00:08.146Z,6.53
2018-03-29T09:02:37.246Z,7.37
2018-03-29T09:05:06.214Z,7.90
2018-03-29T09:07:35.945Z,8.20
2018-03-29T09:10:04.722Z,10.37
2018-03-29T09:12:34.474Z,7.60
2018-03-29T09:15:04.095Z,7.30
2018-03-29T09:17:32.972Z,7.73
2018-03-29T09:20:01.843Z,7.43
2018-03-29T09:22:31.766Z,8.17
2018-03-29T09:25:00.599Z,7.70
2018-03-29T09:27:30.452Z,7.67
2018-03-29T09:29:59.683Z,8.33
2018-03-29T09:32:28.852Z,8.80
2018-03-29T09:34:58.784Z,8.37
2018-03-29T09:37:27.936Z,7.43
2018-03-29T09:39:58.001Z,8.27
2018-03-29T09:42:27.039Z,7.73
2018-03-29T09:44:56.704Z,7.60
2018-03-29T09:47:26.002Z,8.63
2018-03-29T09:49:54.937Z,7.20
2018-03-29T09:52:25.577Z,7.63
2018-03-29T09:54:55.547Z,8.23
2018-03-29T09:57:24.932Z,7.63
2018-03-29T09:59:54.858Z,8.83
2018-03-29T10:02:24.004Z,7.80
2018-03-29T10:04:58.067Z,7.27
2018-03-29T10:07:31.310Z,7.07
2018-03-29T10:10:01.225Z,7.20
2018-03-29T10:12:31.113Z,9.10
2018-03-29T10:15:01.009Z,7.60
2018-03-29T10:17:30.957Z,8.33
2018-03-29T10:20:00.820Z,7.87
2018-03-29T10:22:29.660Z,6.90
2018-03-29T10:25:00.305Z,6.53
2018-03-29T10:27:29.251Z,7.40
2018-03-29T10:29:58.248Z,7.27
2018-03-29T10:32:27.219Z,7.93
2018-03-29T10:34:56.576Z,7.90
2018-03-29T10:37:26.519Z,6.43
2018-03-29T10:39:55.631Z,8.47
2018-03-29T10:42:24.838Z,8.03
2018-03-29T10:44:53.747Z,8.30
2018-03-29T10:47:23.094Z,7.90
2018-03-29T10:49:52.125Z,8.80
2018-03-29T10:52:21.723Z,9.07
2018-03-29T10:54:50.619Z,9.00
2018-03-29T10:57:19.656Z,7.27
2018-03-29T10:59:49.770Z,8.50
2018-03-29T11:02:18.816Z,8.23
2018-03-29T11:04:47.754Z,8.47
2018-03-29T11:07:17.624Z,8.20
2018-03-29T11:09:46.729Z,8.37
2018-03-29T11:12:16.475Z,8.93
2018-03-29T11:14:46.314Z,8.57
2018-03-29T11:17:15.405Z,8.37
2018-03-29T11:19:44.575Z,8.47
2018-03-29T11:22:14.386Z,8.20
2018-03-29T11:24:44.161Z,7.90
2018-03-29T11:27:14.136Z,7.03
2018-03-29T11:29:43.141Z,7.97
2018-03-29T11:32:12.234Z,8.20
2018-03-29T11:34:41.257Z,8.70
2018-03-29T11:37:10.406Z,7.43
2018-03-29T11:39:40.194Z,7.97
2018-03-29T11:42:10.164Z,7.70
2018-03-29T11:44:39.128Z,8.00
2018-03-29T11:47:12.473Z,7.80
2018-03-29T11:49:42.520Z,7.80
2018-03-29T11:52:12.519Z,6.90
2018-03-29T11:54:41.554Z,7.43
2018-03-29T11:57:11.325Z,7.17
2018-03-29T11:59:41.348Z,7.40
2018-03-29T12:02:11.346Z,7.47
2018-03-29T12:04:40.363Z,7.70
2018-03-29T12:07:10.185Z,7.10
2018-03-29T12:09:39.804Z,7.50
2018-03-29T12:12:08.638Z,8.07
2018-03-29T12:14:37.710Z,7.77
2018-03-29T12:17:06.778Z,6.90
2018-03-29T12:19:35.770Z,7.10
2018-03-29T12:22:04.761Z,6.73
2018-03-29T12:24:33.887Z,6.70
2018-03-29T12:27:02.891Z,6.60
2018-03-29T12:29:32.556Z,6.37
2018-03-29T12:32:01.680Z,6.40
2018-03-29T12:34:30.666Z,6.73
2018-03-29T12:36:59.751Z,6.53
2018-03-29T12:39:28.877Z,6.13
2018-03-29T12:41:57.736Z,5.90
2018-03-29T12:44:26.708Z,4.90
2018-03-29T12:46:56.359Z,6.10
2018-03-29T12:49:25.495Z,6.50
2018-03-29T12:51:55.088Z,5.70
2018-03-29T12:54:28.878Z,5.93
2018-03-29T12:59:04.003Z,6.17
2018-03-29T13:01:32.936Z,6.13
2018-03-29T13:04:01.817Z,5.73
2018-03-29T13:06:30.756Z,4.90
2018-03-29T13:08:59.553Z,6.10
2018-03-29T13:11:28.442Z,5.40
2018-03-29T13:13:57.643Z,5.63
2018-03-29T13:16:26.834Z,5.70
2018-03-29T13:18:55.589Z,5.40
2018-03-29T13:21:25.662Z,5.50
2018-03-29T13:23:56.702Z,4.97
2018-03-29T13:26:25.690Z,5.00
2018-03-29T13:28:54.701Z,4.80
2018-03-29T13:31:23.799Z,5.17
2018-03-29T13:33:52.782Z,4.93
2018-03-29T13:36:21.594Z,4.40
2018-03-29T13:38:50.727Z,3.07
2018-03-29T13:41:19.995Z,4.80
2018-03-29T13:43:49.053Z,4.33
2018-03-29T13:46:18.039Z,3.93
2018-03-29T13:48:47.007Z,4.63
2018-03-29T13:51:15.856Z,4.43
2018-03-29T13:53:44.752Z,4.60
2018-03-29T13:56:13.861Z,4.77
2018-03-29T13:58:44.066Z,4.27
2018-03-29T14:01:14.059Z,4.33
2018-03-29T14:03:42.952Z,4.50
2018-03-29T14:06:11.732Z,4.77
2018-03-29T14:08:40.852Z,4.90
2018-03-29T14:11:09.825Z,4.73
2018-03-29T14:13:40.097Z,4.57
2018-03-29T14:16:09.122Z,4.40
2018-03-29T14:18:38.290Z,4.07
2018-03-29T14:21:07.383Z,4.37
2018-03-29T14:23:36.501Z,4.53
2018-03-29T14:26:05.709Z,5.80
2018-03-29T14:28:34.727Z,4.23
2018-03-29T14:31:03.561Z,4.40
2018-03-29T14:33:33.103Z,4.67
2018-03-29T14:36:02.214Z,5.90
2018-03-29T14:38:31.187Z,4.50
2018-03-29T14:41:00.127Z,4.87
2018-03-29T14:43:30.207Z,4.93
2018-03-29T14:45:59.121Z,5.47
2018-03-29T14:48:28.195Z,5.87
2018-03-29T14:50:57.576Z,4.83
2018-03-29T14:53:26.401Z,4.00
2018-03-29T14:55:55.252Z,4.37
2018-03-29T14:58:24.286Z,4.47
2018-03-29T15:00:53.177Z,3.60
2018-03-29T15:03:22.147Z,4.30
2018-03-29T15:05:50.853Z,4.90
2018-03-29T15:08:19.929Z,4.77
2018-03-29T15:10:48.721Z,5.10
2018-03-29T15:13:17.697Z,5.17
2018-03-29T15:15:46.384Z,5.43
2018-03-29T15:18:15.411Z,4.70
2018-03-29T15:20:44.346Z,4.93
2018-03-29T15:23:14.016Z,4.37
2018-03-29T15:25:43.240Z,4.47
2018-03-29T15:28:12.075Z,3.87
2018-03-29T15:30:41.006Z,3.80
2018-03-29T15:33:10.682Z,3.60
2018-03-29T15:35:39.840Z,3.43
2018-03-29T15:38:09.939Z,3.60
2018-03-29T15:40:39.204Z,3.30
2018-03-29T15:43:09.128Z,3.20
2018-03-29T15:45:38.692Z,3.27
2018-03-29T15:48:08.347Z,2.97
2018-03-29T15:50:38.082Z,3.20
2018-03-29T15:53:06.939Z,2.27
2018-03-29T15:55:35.845Z,3.40
2018-03-29T15:58:05.517Z,3.37
2018-03-29T16:00:34.495Z,3.30
2018-03-29T16:03:03.499Z,3.13
2018-03-29T16:05:32.614Z,3.00
2018-03-29T16:08:01.490Z,4.50
2018-03-29T16:10:30.359Z,2.87
2018-03-29T16:12:59.359Z,3.23
2018-03-29T16:15:28.373Z,3.00
2018-03-29T16:17:57.560Z,2.90
2018-03-29T16:20:26.451Z,3.00
2018-03-29T16:22:55.673Z,2.67
2018-03-29T16:25:25.470Z,2.90
2018-03-29T16:28:09.263Z,2.83
2018-03-29T16:30:38.265Z,2.50
2018-03-29T16:33:07.293Z,2.70
2018-03-29T16:35:36.334Z,2.80
2018-03-29T16:38:06.177Z,2.63
2018-03-29T16:40:35.352Z,2.40
2018-03-29T16:43:04.463Z,2.63
2018-03-29T16:45:33.584Z,2.50
2018-03-29T16:48:03.327Z,2.43
2018-03-29T16:50:32.450Z,2.57
2018-03-29T16:53:01.402Z,2.70
2018-03-29T16:55:30.974Z,2.17
2018-03-29T16:58:00.060Z,2.23
2018-03-29T17:00:29.021Z,2.70
2018-03-29T17:02:57.843Z,2.60
2018-03-29T17:05:26.728Z,3.37
2018-03-29T17:07:55.819Z,2.97
2018-03-29T17:10:24.704Z,3.20
2018-03-29T17:12:53.725Z,3.20
2018-03-29T17:15:23.234Z,3.50
2018-03-29T17:17:52.210Z,3.53
2018-03-29T17:20:21.806Z,3.60
2018-03-29T17:22:50.965Z,3.90
2018-03-29T17:25:20.164Z,3.53
2018-03-29T17:27:49.435Z,3.17
2018-03-29T17:30:18.670Z,3.33
2018-03-29T17:32:47.639Z,3.10
2018-03-29T17:35:17.473Z,3.40
2018-03-29T17:37:46.523Z,3.10
2018-03-29T17:40:18.800Z,3.63
2018-03-29T17:42:47.601Z,3.63
2018-03-29T17:45:17.614Z,3.97
2018-03-29T17:47:47.411Z,3.60
2018-03-29T17:50:16.909Z,3.27
2018-03-29T17:52:45.905Z,3.50
2018-03-29T17:55:17.313Z,13.00
2018-03-29T17:57:46.951Z,3.47
2018-03-29T18:00:17.194Z,3.73
2018-03-29T18:02:47.082Z,3.90
2018-03-29T18:05:16.156Z,3.80
2018-03-29T18:07:45.030Z,3.50
2018-03-29T18:10:14.167Z,4.90
2018-03-29T18:12:43.366Z,4.47
2018-03-29T18:15:12.462Z,4.10
2018-03-29T18:17:41.349Z,4.70
2018-03-29T18:20:10.292Z,5.62
2018-03-29T18:22:39.238Z,5.00
2018-03-29T18:25:08.128Z,5.23
2018-03-29T18:27:37.148Z,5.10
2018-03-29T18:30:06.132Z,5.13
2018-03-29T18:32:36.076Z,5.33
2018-03-29T18:35:05.861Z,5.23
2018-03-29T18:37:35.762Z,4.97
2018-03-29T18:40:04.791Z,6.43
2018-03-29T18:42:33.666Z,7.07
2018-03-29T18:45:03.315Z,5.47
2018-03-29T18:47:32.221Z,6.10
2018-03-29T18:50:01.120Z,6.20
2018-03-29T18:52:29.882Z,5.73
2018-03-29T18:54:58.681Z,5.90
2018-03-29T18:57:28.677Z,6.27
2018-03-29T18:59:57.315Z,6.57
2018-03-29T19:02:26.649Z,6.67
2018-03-29T19:04:55.355Z,7.80
2018-03-29T19:07:24.192Z,7.73
2018-03-29T19:09:53.197Z,6.87
2018-03-29T19:12:22.589Z,7.07
2018-03-29T19:14:52.031Z,6.40
2018-03-29T19:17:20.843Z,9.17
2018-03-29T19:19:50.219Z,6.87
2018-03-29T19:22:18.780Z,5.97
2018-03-29T19:24:48.172Z,5.80
2018-03-29T19:27:17.791Z,5.50
2018-03-29T19:29:46.298Z,5.30
2018-03-29T19:32:15.054Z,5.37
2018-03-29T19:34:44.626Z,5.60
2018-03-29T19:37:13.308Z,5.20
2018-03-29T19:39:42.297Z,5.77
2018-03-29T19:42:11.627Z,6.87
2018-03-29T19:44:41.579Z,8.17
2018-03-29T19:47:10.205Z,8.53
2018-03-29T19:49:39.697Z,8.87
2018-03-29T19:52:08.380Z,9.13
2018-03-29T19:54:38.441Z,8.73
2018-03-29T19:57:08.458Z,7.70
2018-03-29T19:59:38.382Z,7.23
2018-03-29T20:02:08.097Z,6.40
2018-03-29T20:04:36.881Z,6.77
2018-03-29T20:07:08.483Z,7.37
2018-03-29T20:09:37.144Z,8.30
2018-03-29T20:12:05.910Z,8.10
2018-03-29T20:14:34.467Z,7.63
2018-03-29T20:17:04.371Z,9.67
2018-03-29T20:19:33.496Z,8.83
2018-03-29T20:22:02.405Z,7.27
2018-03-29T20:24:31.365Z,7.50
2018-03-29T20:27:00.892Z,7.67
2018-03-29T20:29:29.729Z,8.73
2018-03-29T20:31:58.792Z,7.90
2018-03-29T20:34:27.900Z,8.90
2018-03-29T20:36:56.839Z,8.13
2018-03-29T20:39:27.756Z,6.97
2018-03-29T20:41:57.556Z,6.83
2018-03-29T20:44:26.842Z,7.10
2018-03-29T20:46:57.015Z,7.63
2018-03-29T20:49:26.208Z,7.80
2018-03-29T20:51:55.951Z,7.87
2018-03-29T20:54:24.795Z,11.07
2018-03-29T20:56:54.441Z,9.77
2018-03-29T20:59:23.237Z,11.87
2018-03-29T21:01:51.910Z,7.57
2018-03-29T21:04:20.697Z,9.13
2018-03-29T21:06:49.520Z,29.40
2018-03-29T21:09:18.238Z,21.13
2018-03-29T21:11:48.427Z,10.67
2018-03-29T21:14:17.180Z,8.37
2018-03-29T21:16:46.403Z,8.60
2018-03-29T21:19:15.218Z,8.27
2018-03-29T21:21:44.039Z,8.63
2018-03-29T21:24:13.740Z,8.53
2018-03-29T21:26:43.324Z,9.20
2018-03-29T21:29:12.391Z,9.27
2018-03-29T21:31:41.177Z,8.43
2018-03-29T21:34:10.672Z,9.07
2018-03-29T21:36:39.428Z,7.83
2018-03-29T21:39:08.921Z,9.03
2018-03-29T21:44:37.574Z,7.63
2018-03-29T21:47:06.668Z,7.87
2018-03-29T21:49:35.624Z,8.30
2018-03-29T21:52:04.600Z,8.13
2018-03-29T21:54:33.927Z,7.73
2018-03-29T21:57:03.389Z,7.60
2018-03-29T21:59:33.048Z,8.20
2018-03-29T22:02:02.224Z,7.70
2018-03-29T22:04:31.037Z,7.53
2018-03-29T22:06:59.906Z,8.17
2018-03-29T22:09:29.663Z,7.50
2018-03-29T22:11:58.376Z,7.90
2018-03-29T22:14:27.345Z,7.23
2018-03-29T22:16:56.673Z,7.23
2018-03-29T22:19:25.392Z,7.87
2018-03-29T22:21:54.202Z,8.33
2018-03-29T22:24:23.425Z,8.73
2018-03-29T22:26:52.443Z,8.37
2018-03-29T22:29:21.326Z,8.47
2018-03-29T22:31:51.003Z,7.87
2018-03-29T22:34:20.364Z,8.70
2018-03-29T22:36:49.436Z,8.80
2018-03-29T22:39:18.247Z,8.23
2018-03-29T22:41:47.104Z,10.23
2018-03-29T22:44:16.118Z,9.30
2018-03-29T22:46:45.128Z,10.10
2018-03-29T22:49:14.960Z,9.53
2018-03-29T22:51:44.021Z,8.17
2018-03-29T22:54:13.080Z,9.23
2018-03-29T22:56:41.919Z,10.10
2018-03-29T22:59:10.825Z,10.30
2018-03-29T23:01:39.925Z,9.30
2018-03-29T23:04:08.842Z,8.90
2018-03-29T23:06:38.308Z,8.67
2018-03-29T23:09:07.668Z,8.40
2018-03-29T23:11:36.568Z,8.83
2018-03-29T23:14:05.479Z,8.57
2018-03-29T23:16:35.242Z,8.20
2018-03-29T23:19:04.183Z,8.90
2018-03-29T23:21:33.365Z,9.50
2018-03-29T23:24:03.447Z,9.03
2018-03-29T23:26:32.957Z,9.30
2018-03-29T23:29:01.996Z,9.30
2018-03-29T23:31:31.673Z,8.10
2018-03-29T23:34:03.327Z,7.87
2018-03-29T23:36:32.878Z,7.90
2018-03-29T23:39:02.180Z,8.10
2018-03-29T23:41:31.939Z,8.67
2018-03-29T23:44:01.747Z,8.40
2018-03-29T23:46:32.548Z,8.10
2018-03-29T23:49:01.636Z,8.70
2018-03-29T23:51:31.604Z,8.17
2018-03-29T23:54:01.094Z,8.77
2018-03-29T23:56:31.350Z,8.80
2018-03-29T23:59:00.999Z,8.73
